Time;durP1;ratioP1;P1;durP2;ratioP2;P2;SDS_P1;SDS_P2;PMS_P1;PMS_P2;Temp;Humidity;BMP_temperature;BMP_pressure;BME280_temperature;BME280_humidity;BME280_pressure;Samples;Min_cycle;Max_cycle;Signal;HPM_P1;HPM_P2
2022/10/22 00:00:13;;;;;;;9.30;3.20;;;14.30;99.90;;;;;;5076947;28;20350;-65
2022/10/22 00:02:38;;;;;;;10.15;3.45;;;14.40;99.90;;;;;;5076904;28;20036;-65
2022/10/22 00:05:05;;;;;;;11.32;3.80;;;14.40;99.90;;;;;;5076731;28;20411;-65
2022/10/22 00:07:31;;;;;;;11.77;3.70;;;14.40;99.90;;;;;;5077462;28;20029;-65
2022/10/22 00:09:57;;;;;;;18.27;3.45;;;14.40;99.90;;;;;;5077058;28;20085;-65
2022/10/22 00:12:23;;;;;;;9.85;3.50;;;14.50;99.90;;;;;;5076797;28;20040;-66
2022/10/22 00:14:49;;;;;;;9.68;3.50;;;14.50;99.90;;;;;;5075990;28;20250;-66
2022/10/22 00:17:17;;;;;;;9.50;3.60;;;14.60;99.90;;;;;;5076681;28;20036;-66
2022/10/22 00:19:42;;;;;;;9.50;3.47;;;14.60;99.90;;;;;;5076686;28;20273;-65
2022/10/22 00:22:09;;;;;;;12.20;3.30;;;14.60;99.90;;;;;;5076240;28;20043;-65
2022/10/22 00:24:36;;;;;;;8.23;3.20;;;14.70;99.90;;;;;;5076676;28;20035;-64
2022/10/22 00:27:03;;;;;;;7.45;2.95;;;14.70;99.90;;;;;;5075856;28;20035;-64
2022/10/22 00:29:30;;;;;;;12.27;3.45;;;14.80;99.90;;;;;;5075804;28;20036;-64
2022/10/22 00:31:56;;;;;;;8.55;2.92;;;14.80;99.90;;;;;;5077156;28;20043;-65
2022/10/22 00:34:22;;;;;;;8.70;3.10;;;14.80;99.90;;;;;;5059150;28;20033;-64
2022/10/22 00:36:50;;;;;;;6.22;2.78;;;14.90;99.90;;;;;;5076417;28;20039;-64
2022/10/22 00:39:17;;;;;;;7.22;2.75;;;15.00;99.90;;;;;;5077077;28;20098;-64
2022/10/22 00:41:45;;;;;;;7.88;3.17;;;15.00;99.90;;;;;;5080865;28;20036;-64
2022/10/22 00:44:48;;;;;;;8.23;2.63;;;15.00;99.90;;;;;;5062889;28;20111;-64
2022/10/22 00:47:16;;;;;;;8.15;2.85;;;15.00;99.90;;;;;;5080880;28;20149;-64
2022/10/22 00:49:43;;;;;;;9.10;3.35;;;15.00;99.90;;;;;;5080181;28;20090;-64
2022/10/22 00:52:10;;;;;;;9.23;3.00;;;15.00;99.90;;;;;;5080194;28;20032;-64
2022/10/22 00:54:37;;;;;;;11.07;2.70;;;15.00;99.90;;;;;;5062710;28;20047;-65
2022/10/22 00:57:03;;;;;;;9.48;3.05;;;15.00;99.90;;;;;;5079464;28;20127;-65
2022/10/22 00:59:30;;;;;;;7.53;2.88;;;15.00;99.90;;;;;;5079289;28;20028;-65
2022/10/22 01:01:56;;;;;;;9.40;3.08;;;15.00;99.90;;;;;;5080161;28;20299;-65
2022/10/22 01:04:22;;;;;;;8.02;2.53;;;15.00;99.90;;;;;;5079249;28;20032;-65
2022/10/22 01:06:48;;;;;;;6.60;2.60;;;14.90;99.90;;;;;;5079349;28;20053;-65
2022/10/22 01:09:22;;;;;;;7.28;2.55;;;14.90;99.90;;;;;;5062383;28;20097;-65
2022/10/22 01:11:55;;;;;;;9.13;2.78;;;14.90;99.90;;;;;;5062508;28;20029;-65
2022/10/22 01:14:56;;;;;;;6.60;2.63;;;14.90;99.90;;;;;;5079763;28;20028;-65
2022/10/22 01:17:25;;;;;;;6.60;2.67;;;14.90;99.90;;;;;;5076514;28;20044;-65
2022/10/22 01:20:13;;;;;;;12.30;3.75;;;14.90;99.90;;;;;;5078988;28;20048;-65
2022/10/22 01:22:58;;;;;;;8.00;2.88;;;15.00;99.90;;;;;;5080336;28;20103;-65
2022/10/22 01:25:35;;;;;;;12.40;3.00;;;15.00;99.90;;;;;;5062146;28;20036;-65
2022/10/22 01:28:34;;;;;;;5.30;2.05;;;15.00;99.90;;;;;;5078926;28;20079;-65
2022/10/22 01:31:02;;;;;;;11.10;2.80;;;15.00;99.90;;;;;;5078686;28;20039;-65
2022/10/22 01:33:30;;;;;;;5.50;2.60;;;15.00;99.90;;;;;;5079458;28;20024;-65
2022/10/22 01:35:58;;;;;;;10.77;2.90;;;15.00;99.90;;;;;;5079403;28;20354;-64
2022/10/22 01:38:25;;;;;;;6.13;2.53;;;15.00;99.90;;;;;;5078557;28;20373;-66
2022/10/22 01:40:52;;;;;;;9.73;2.55;;;15.00;99.90;;;;;;5061914;28;20109;-65
2022/10/22 01:43:21;;;;;;;8.00;2.40;;;15.00;99.90;;;;;;5079368;28;20029;-65
2022/10/22 01:45:55;;;;;;;5.93;2.40;;;15.00;99.90;;;;;;5078528;28;20025;-65
2022/10/22 01:48:45;;;;;;;11.15;2.92;;;15.00;99.90;;;;;;5078492;28;20028;-65
2022/10/22 01:51:24;;;;;;;9.70;2.70;;;15.00;99.90;;;;;;5078109;28;20093;-65
2022/10/22 01:53:58;;;;;;;13.52;2.78;;;15.00;99.90;;;;;;5078279;28;20311;-65
2022/10/22 01:56:30;;;;;;;7.25;2.28;;;15.00;99.90;;;;;;5078122;28;20105;-65
2022/10/22 01:59:33;;;;;;;10.85;2.30;;;15.00;99.90;;;;;;5061552;28;20036;-65
2022/10/22 02:02:10;;;;;;;7.32;2.80;;;15.00;99.90;;;;;;5062344;28;20178;-65
2022/10/22 02:04:42;;;;;;;7.30;2.53;;;15.00;99.90;;;;;;5078253;28;20040;-64
2022/10/22 02:07:10;;;;;;;;;;;15.00;99.90;;;;;;5079243;28;20115;-65
2022/10/22 02:09:38;;;;;;;5.57;2.40;;;15.00;99.90;;;;;;5077999;28;19918;-65
2022/10/22 02:12:06;;;;;;;8.68;3.00;;;14.90;99.90;;;;;;5078037;28;20120;-65
2022/10/22 02:14:35;;;;;;;6.72;2.72;;;14.90;99.90;;;;;;5078945;28;20025;-65
2022/10/22 02:17:01;;;;;;;10.13;2.65;;;14.90;99.90;;;;;;5078784;28;20043;-65
2022/10/22 02:19:37;;;;;;;9.30;2.50;;;14.90;99.90;;;;;;5061269;28;20108;-64
2022/10/22 02:22:04;;;;;;;8.68;2.50;;;14.90;99.90;;;;;;5077859;28;20116;-65
2022/10/22 02:24:30;;;;;;;14.38;2.83;;;14.90;99.90;;;;;;5077709;28;20027;-65
2022/10/22 02:27:17;;;;;;;7.60;2.03;;;14.90;99.90;;;;;;5077699;28;20105;-65
2022/10/22 02:29:54;;;;;;;9.27;2.08;;;14.80;99.90;;;;;;5078317;28;20041;-65
2022/10/22 02:32:25;;;;;;;8.43;2.05;;;14.80;99.90;;;;;;5078607;28;20032;-65
2022/10/22 02:34:54;;;;;;;6.43;2.35;;;14.70;99.90;;;;;;5077476;28;20028;-65
2022/10/22 02:37:21;;;;;;;5.00;2.10;;;14.80;99.90;;;;;;5077608;28;20094;-65
2022/10/22 02:39:47;;;;;;;10.55;2.30;;;14.80;99.90;;;;;;5078048;28;20109;-65
2022/10/22 02:42:13;;;;;;;8.90;2.38;;;14.80;99.90;;;;;;5077383;28;20050;-65
2022/10/22 02:44:39;;;;;;;7.72;2.35;;;14.80;99.90;;;;;;5078108;28;20412;-66
2022/10/22 02:47:05;;;;;;;6.20;2.22;;;14.70;99.90;;;;;;5060909;28;20039;-65
2022/10/22 02:49:31;;;;;;;8.27;2.08;;;14.80;99.90;;;;;;5077967;28;20036;-65
2022/10/22 02:51:57;;;;;;;6.78;2.25;;;14.70;99.90;;;;;;5061017;28;20277;-65
2022/10/22 02:54:23;;;;;;;7.03;2.05;;;14.70;99.90;;;;;;5077883;28;20072;-65
2022/10/22 02:56:48;;;;;;;9.07;2.13;;;14.70;99.90;;;;;;5077505;28;20401;-65
2022/10/22 02:59:14;;;;;;;9.15;2.10;;;14.70;99.90;;;;;;5077712;28;20070;-65
2022/10/22 03:01:40;;;;;;;8.25;2.00;;;14.70;99.90;;;;;;5076300;28;20043;-64
2022/10/22 03:04:06;;;;;;;12.73;2.50;;;14.70;99.90;;;;;;5060290;28;20032;-65
2022/10/22 03:06:32;;;;;;;9.00;2.20;;;14.70;99.90;;;;;;5077274;28;20047;-65
2022/10/22 03:08:57;;;;;;;8.02;2.38;;;14.70;99.90;;;;;;5077996;28;20047;-66
2022/10/22 03:11:23;;;;;;;9.52;2.53;;;14.70;99.90;;;;;;5060245;28;20047;-65
2022/10/22 03:13:49;;;;;;;8.10;2.42;;;14.70;99.90;;;;;;5060019;28;20139;-65
2022/10/22 03:16:15;;;;;;;5.20;2.20;;;14.70;99.90;;;;;;5076826;28;20105;-65
2022/10/22 03:18:41;;;;;;;7.13;2.00;;;14.70;99.90;;;;;;5077387;28;20366;-65
2022/10/22 03:21:12;;;;;;;4.10;1.75;;;14.60;99.90;;;;;;5077379;28;20028;-64
2022/10/22 03:23:39;;;;;;;6.63;1.95;;;14.60;99.90;;;;;;5077309;28;20040;-64
2022/10/22 03:26:07;;;;;;;7.00;2.00;;;14.60;99.90;;;;;;5076504;28;20346;-65
2022/10/22 03:28:34;;;;;;;9.20;1.98;;;14.60;99.90;;;;;;5076584;28;20037;-64
2022/10/22 03:31:00;;;;;;;7.10;1.73;;;14.70;99.90;;;;;;5076383;28;20041;-65
2022/10/22 03:33:25;;;;;;;8.02;2.10;;;14.70;99.90;;;;;;5076450;28;20392;-67
2022/10/22 03:35:51;;;;;;;9.23;2.10;;;14.70;99.90;;;;;;5076487;28;20409;-65
2022/10/22 03:38:17;;;;;;;8.18;1.90;;;14.70;99.90;;;;;;5076453;28;20142;-64
2022/10/22 03:40:44;;;;;;;7.50;2.00;;;14.70;99.90;;;;;;5076370;28;20059;-65
2022/10/22 03:43:11;;;;;;;9.52;1.90;;;14.80;99.90;;;;;;5077602;28;20067;-64
2022/10/22 03:45:37;;;;;;;7.22;1.90;;;14.80;99.90;;;;;;5076978;28;20021;-65
2022/10/22 03:48:03;;;;;;;9.40;1.98;;;14.80;99.90;;;;;;5076527;28;20035;-65
2022/10/22 03:50:28;;;;;;;5.60;1.85;;;14.90;99.90;;;;;;5076414;28;20063;-64
2022/10/22 03:52:54;;;;;;;5.47;1.52;;;14.90;99.90;;;;;;5077041;28;20036;-65
2022/10/22 03:55:20;;;;;;;7.35;2.10;;;14.90;99.90;;;;;;5076260;28;20032;-64
2022/10/22 03:57:46;;;;;;;9.75;1.90;;;14.90;99.90;;;;;;5076032;28;20057;-64
2022/10/22 04:00:12;;;;;;;7.13;1.60;;;14.90;99.90;;;;;;5059518;28;20057;-64
2022/10/22 04:02:37;;;;;;;4.97;1.40;;;14.90;99.90;;;;;;5076440;28;20059;-65
2022/10/22 04:05:03;;;;;;;8.57;1.88;;;14.90;99.90;;;;;;5076007;28;20140;-63
2022/10/22 04:07:29;;;;;;;5.25;1.58;;;14.90;99.90;;;;;;5076107;28;20078;-64
2022/10/22 04:09:55;;;;;;;8.18;1.70;;;14.90;99.90;;;;;;5076086;28;20115;-64
2022/10/22 04:12:21;;;;;;;8.30;1.60;;;14.90;99.90;;;;;;5076126;28;20050;-64
2022/10/22 04:14:46;;;;;;;14.32;1.88;;;14.90;99.90;;;;;;5081023;28;20403;-64
2022/10/22 04:17:12;;;;;;;3.72;1.50;;;14.80;99.90;;;;;;5081231;28;20032;-64
2022/10/22 04:19:38;;;;;;;4.90;1.55;;;14.80;99.90;;;;;;5097012;28;20058;-64
2022/10/22 04:22:04;;;;;;;7.53;1.70;;;14.80;99.90;;;;;;5063403;28;20036;-65
2022/10/22 04:24:31;;;;;;;8.27;1.80;;;14.80;99.90;;;;;;5080877;28;20035;-64
2022/10/22 04:26:57;;;;;;;9.82;1.65;;;14.80;99.90;;;;;;5063446;28;20029;-64
2022/10/22 04:29:23;;;;;;;9.15;1.98;;;14.80;99.90;;;;;;5079915;28;20308;-65
2022/10/22 04:31:49;;;;;;;9.68;1.40;;;14.80;99.90;;;;;;5079853;28;20044;-62
2022/10/22 04:34:15;;;;;;;8.65;1.83;;;14.90;99.90;;;;;;5080235;28;20430;-65
2022/10/22 04:36:41;;;;;;;8.40;1.70;;;14.80;99.90;;;;;;5080433;28;20028;-65
2022/10/22 04:39:07;;;;;;;8.90;1.70;;;14.80;99.90;;;;;;5046492;28;20024;-65
2022/10/22 04:41:35;;;;;;;8.43;1.48;;;14.80;99.90;;;;;;5079743;28;20383;-64
2022/10/22 04:44:02;;;;;;;10.98;1.67;;;14.80;99.90;;;;;;5079539;28;20028;-65
2022/10/22 04:46:30;;;;;;;6.60;1.60;;;14.90;99.90;;;;;;5079607;28;20020;-64
2022/10/22 04:48:56;;;;;;;7.03;1.30;;;14.90;99.90;;;;;;5080338;28;20028;-65
2022/10/22 04:51:24;;;;;;;14.15;1.73;;;15.00;99.90;;;;;;5080247;28;20039;-64
2022/10/22 04:53:50;;;;;;;12.05;1.83;;;14.90;99.90;;;;;;5079538;28;20071;-64
2022/10/22 04:56:25;;;;;;;8.60;1.90;;;14.90;99.90;;;;;;5079315;28;20366;-65
2022/10/22 04:58:54;;;;;;;5.93;1.45;;;14.80;99.90;;;;;;5079424;28;20048;-65
2022/10/22 05:01:22;;;;;;;9.63;1.52;;;14.80;99.90;;;;;;5079112;28;20060;-65
2022/10/22 05:03:49;;;;;;;4.90;1.40;;;14.70;99.90;;;;;;5079159;28;20067;-65
2022/10/22 05:06:15;;;;;;;6.40;1.60;;;14.70;99.90;;;;;;5062553;28;20028;-65
2022/10/22 05:08:42;;;;;;;9.60;1.85;;;14.70;99.90;;;;;;5079924;28;20424;-65
2022/10/22 05:11:17;;;;;;;11.43;1.52;;;14.60;99.90;;;;;;5079146;28;20273;-65
2022/10/22 05:13:44;;;;;;;5.53;1.23;;;14.60;99.90;;;;;;5079714;28;20074;-66
2022/10/22 05:16:10;;;;;;;11.82;2.08;;;14.60;99.90;;;;;;5079929;28;20442;-65
2022/10/22 05:18:37;;;;;;;5.95;1.60;;;14.60;99.90;;;;;;5062424;28;20033;-64
2022/10/22 05:21:07;;;;;;;8.55;1.63;;;14.60;99.90;;;;;;5079022;28;20032;-64
2022/10/22 05:23:33;;;;;;;8.27;1.85;;;14.60;99.90;;;;;;5079635;28;20032;-65
2022/10/22 05:26:03;;;;;;;9.93;1.58;;;14.60;99.90;;;;;;5078079;28;20281;-63
2022/10/22 05:28:29;;;;;;;10.32;1.73;;;14.60;99.90;;;;;;5079582;28;20020;-66
2022/10/22 05:30:57;;;;;;;7.47;1.50;;;14.60;99.90;;;;;;5062057;28;20016;-64
2022/10/22 05:33:23;;;;;;;4.65;2.03;;;14.50;99.90;;;;;;5078875;28;20039;-64
2022/10/22 05:35:49;;;;;;;7.97;1.73;;;14.50;99.90;;;;;;5045445;28;20396;-65
2022/10/22 05:38:16;;;;;;;8.73;1.50;;;14.50;99.90;;;;;;5062012;28;20054;-65
2022/10/22 05:40:42;;;;;;;11.15;1.77;;;14.50;99.90;;;;;;5079246;28;20029;-65
2022/10/22 05:43:08;;;;;;;9.50;2.05;;;14.50;99.90;;;;;;5078507;28;20316;-64
2022/10/22 05:45:37;;;;;;;7.28;1.60;;;14.40;99.90;;;;;;5078362;28;20066;-65
2022/10/22 05:48:04;;;;;;;12.07;2.00;;;14.40;99.90;;;;;;5079109;28;20032;-66
2022/10/22 05:50:30;;;;;;;10.00;1.70;;;14.40;99.90;;;;;;5078548;28;20041;-65
2022/10/22 05:52:56;;;;;;;7.05;1.60;;;14.50;99.90;;;;;;5078446;28;20047;-67
2022/10/22 05:55:21;;;;;;;8.05;1.80;;;14.50;99.90;;;;;;5079050;28;20467;-66
2022/10/22 05:57:49;;;;;;;6.72;1.58;;;14.50;99.90;;;;;;5061525;28;20045;-66
2022/10/22 06:00:15;;;;;;;7.13;1.50;;;14.50;99.90;;;;;;5061755;28;20502;-66
2022/10/22 06:02:41;;;;;;;6.63;1.58;;;14.50;99.90;;;;;;5061608;28;20115;-67
2022/10/22 06:05:07;;;;;;;10.05;1.65;;;14.50;99.90;;;;;;5078096;28;20032;-65
2022/10/22 06:07:34;;;;;;;11.98;2.05;;;14.40;99.90;;;;;;5078101;28;20028;-68
2022/10/22 06:10:01;;;;;;;9.73;1.60;;;14.40;99.90;;;;;;5078656;28;20292;-64
2022/10/22 06:12:27;;;;;;;6.85;1.40;;;14.40;99.90;;;;;;5078565;28;20045;-64
2022/10/22 06:14:52;;;;;;;8.07;1.90;;;14.40;99.90;;;;;;5078611;28;20024;-64
2022/10/22 06:17:18;;;;;;;12.25;2.08;;;14.40;99.90;;;;;;5077711;28;20036;-68
2022/10/22 06:19:44;;;;;;;7.95;1.70;;;14.30;99.90;;;;;;5077581;28;20039;-65
2022/10/22 06:22:11;;;;;;;7.55;1.70;;;14.40;99.90;;;;;;5060923;28;20363;-65
2022/10/22 06:24:36;;;;;;;8.00;1.70;;;14.30;99.90;;;;;;5078444;28;20097;-65
2022/10/22 06:27:02;;;;;;;8.60;1.92;;;14.30;99.90;;;;;;5077601;28;20040;-65
2022/10/22 06:29:28;;;;;;;7.55;1.58;;;14.40;99.90;;;;;;5061009;28;20316;-65
2022/10/22 06:31:54;;;;;;;7.22;1.70;;;14.40;99.90;;;;;;5077520;28;20048;-65
2022/10/22 06:34:20;;;;;;;8.93;2.00;;;14.40;99.90;;;;;;5077845;28;20047;-66
2022/10/22 06:36:50;;;;;;;8.35;1.80;;;14.50;99.90;;;;;;5076221;28;20067;-65
2022/10/22 06:39:17;;;;;;;11.00;1.77;;;14.50;99.90;;;;;;5078032;28;20388;-66
2022/10/22 06:41:43;;;;;;;8.73;1.83;;;14.60;99.90;;;;;;5060792;28;20031;-64
2022/10/22 06:44:13;;;;;;;8.13;1.42;;;14.70;99.90;;;;;;5078203;28;20330;-66
2022/10/22 06:46:39;;;;;;;8.75;1.58;;;14.70;99.90;;;;;;5078037;28;20070;-68
2022/10/22 06:49:05;;;;;;;8.32;1.67;;;14.80;99.90;;;;;;5077222;28;20032;-67
2022/10/22 06:51:31;;;;;;;8.45;1.60;;;14.80;99.90;;;;;;5077193;28;20028;-67
2022/10/22 06:53:58;;;;;;;6.82;1.65;;;15.00;99.90;;;;;;5060519;28;20024;-67
2022/10/22 06:56:28;;;;;;;6.00;1.10;;;15.20;99.90;;;;;;5076860;28;20053;-63
2022/10/22 06:58:56;;;;;;;6.95;1.95;;;15.10;99.90;;;;;;5077714;28;20331;-68
2022/10/22 07:01:25;;;;;;;12.57;1.90;;;15.20;99.90;;;;;;5076898;28;20036;-66
2022/10/22 07:03:52;;;;;;;7.15;1.45;;;15.20;99.90;;;;;;5076884;28;20119;-66
2022/10/22 07:06:18;;;;;;;7.95;1.50;;;15.20;99.90;;;;;;5077662;28;20021;-66
2022/10/22 07:08:44;;;;;;;10.57;1.60;;;15.20;99.90;;;;;;5077893;28;20040;-69
2022/10/22 07:11:16;;;;;;;10.00;1.80;;;15.10;99.90;;;;;;5076668;28;20288;-67
2022/10/22 07:13:42;;;;;;;9.38;1.23;;;15.20;99.90;;;;;;5077397;28;20050;-67
2022/10/22 07:16:08;;;;;;;6.78;1.60;;;15.10;99.90;;;;;;5060005;28;20043;-68
2022/10/22 07:18:36;;;;;;;5.40;1.25;;;15.00;99.90;;;;;;5076916;28;20098;-66
2022/10/22 07:21:02;;;;;;;6.85;1.33;;;14.90;99.90;;;;;;5060024;28;20028;-67
2022/10/22 07:23:28;;;;;;;4.38;1.40;;;15.00;99.90;;;;;;5059931;28;20354;-68
2022/10/22 07:25:54;;;;;;;7.68;1.48;;;15.00;99.90;;;;;;5077169;28;20028;-66
2022/10/22 07:28:20;;;;;;;11.32;1.50;;;15.00;99.90;;;;;;5077763;28;20042;-62
2022/10/22 07:30:46;;;;;;;8.35;1.58;;;15.00;99.90;;;;;;5077077;28;20025;-71
2022/10/22 07:33:12;;;;;;;11.23;1.80;;;15.00;99.90;;;;;;5077155;28;20101;-64
2022/10/22 07:35:39;;;;;;;10.38;2.05;;;15.00;99.90;;;;;;5059867;28;20032;-65
2022/10/22 07:38:06;;;;;;;6.30;1.90;;;15.00;99.90;;;;;;5076907;28;20040;-66
2022/10/22 07:40:33;;;;;;;5.60;1.38;;;15.10;99.90;;;;;;5076355;28;20300;-64
2022/10/22 07:42:59;;;;;;;7.30;1.83;;;15.10;99.90;;;;;;5059724;28;20028;-64
2022/10/22 07:45:25;;;;;;;4.78;1.73;;;15.20;99.90;;;;;;5093297;28;20031;-65
2022/10/22 07:47:51;;;;;;;9.27;2.00;;;15.20;99.90;;;;;;5075837;28;20037;-64
2022/10/22 07:50:17;;;;;;;11.85;1.98;;;15.20;99.90;;;;;;5076092;28;20086;-64
2022/10/22 07:52:43;;;;;;;12.32;1.92;;;15.40;99.90;;;;;;5059479;28;20032;-64
2022/10/22 07:55:09;;;;;;;9.18;1.92;;;15.40;99.90;;;;;;5076675;28;20423;-65
2022/10/22 07:57:36;;;;;;;7.72;1.50;;;15.50;99.90;;;;;;5059077;28;20425;-65
2022/10/22 08:00:07;;;;;;;12.25;2.00;;;15.60;99.90;;;;;;5078782;28;21557;-64
2022/10/22 08:02:37;;;;;;;9.77;1.65;;;15.70;99.90;;;;;;5096292;28;20082;-64
2022/10/22 08:05:04;;;;;;;13.75;2.10;;;15.70;99.90;;;;;;5096865;28;20043;-64
2022/10/22 08:07:30;;;;;;;7.72;2.05;;;15.70;99.90;;;;;;5096977;28;20022;-65
2022/10/22 08:09:55;;;;;;;8.40;1.70;;;15.70;99.90;;;;;;5096233;28;20028;-66
2022/10/22 08:12:21;;;;;;;9.15;1.50;;;15.80;99.90;;;;;;5096254;28;20033;-65
2022/10/22 08:14:47;;;;;;;9.25;1.30;;;15.70;99.90;;;;;;5097148;28;20112;-65
2022/10/22 08:17:13;;;;;;;8.05;1.60;;;15.60;99.90;;;;;;5096138;28;20089;-66
2022/10/22 08:19:39;;;;;;;7.70;1.65;;;15.60;99.90;;;;;;5096240;28;20036;-64
2022/10/22 08:22:05;;;;;;;7.28;1.55;;;15.70;99.90;;;;;;5096901;28;20439;-64
2022/10/22 08:24:30;;;;;;;6.93;1.40;;;15.80;99.90;;;;;;5079343;28;20024;-65
2022/10/22 08:26:57;;;;;;;10.45;1.52;;;15.90;99.90;;;;;;5096804;28;20406;-65
2022/10/22 08:29:23;;;;;;;11.30;1.65;;;16.00;99.90;;;;;;5096519;28;20036;-66
2022/10/22 08:31:49;;;;;;;9.10;1.65;;;16.10;99.90;;;;;;5096729;28;20032;-63
2022/10/22 08:34:16;;;;;;;8.60;1.20;;;16.30;99.90;;;;;;5096779;28;20048;-66
2022/10/22 08:36:41;;;;;;;11.90;1.65;;;16.50;99.90;;;;;;5079007;28;20028;-67
2022/10/22 08:39:08;;;;;;;8.85;1.50;;;16.50;99.90;;;;;;5079365;28;20012;-67
2022/10/22 08:41:57;;;;;;;6.25;1.27;;;16.50;99.90;;;;;;5095872;28;20039;-62
2022/10/22 08:45:02;;;;;;;10.13;1.70;;;16.60;99.90;;;;;;5075811;28;20306;-68
2022/10/22 08:47:50;;;;;;;7.20;1.25;;;16.50;99.90;;;;;;5095858;28;20036;-61
2022/10/22 08:50:23;;;;;;;10.10;1.98;;;16.50;99.90;;;;;;5096466;28;20036;-63
2022/10/22 08:52:51;;;;;;;7.78;1.48;;;16.40;99.90;;;;;;5095673;28;20075;-64
2022/10/22 08:55:18;;;;;;;9.80;2.03;;;16.50;99.90;;;;;;5096421;28;20439;-64
2022/10/22 08:57:50;;;;;;;5.38;1.40;;;16.40;99.90;;;;;;5096408;28;20070;-66
2022/10/22 09:00:35;;;;;;;6.28;1.63;;;16.60;99.90;;;;;;5097744;28;20096;-64
2022/10/22 09:03:01;;;;;;;7.50;1.98;;;16.70;99.90;;;;;;5100769;28;20382;-64
2022/10/22 09:05:51;;;;;;;10.02;1.65;;;16.60;99.90;;;;;;5100127;28;20114;-65
2022/10/22 09:08:19;;;;;;;7.10;1.50;;;16.80;99.90;;;;;;5100514;28;20032;-65
2022/10/22 09:10:56;;;;;;;10.38;1.92;;;17.30;99.90;;;;;;5082015;28;20066;-63
2022/10/22 09:13:22;;;;;;;11.10;1.83;;;17.20;99.90;;;;;;5100105;28;20039;-63
2022/10/22 09:15:55;;;;;;;7.13;1.60;;;17.30;99.90;;;;;;5099890;28;20115;-64
2022/10/22 09:18:40;;;;;;;8.95;1.40;;;17.50;99.90;;;;;;5099786;28;20037;-65
2022/10/22 09:21:26;;;;;;;5.93;1.42;;;17.70;99.90;;;;;;5099177;28;20095;-63
2022/10/22 09:24:03;;;;;;;7.40;1.50;;;17.90;99.90;;;;;;5099859;28;20097;-65
2022/10/22 09:26:33;;;;;;;7.88;1.60;;;17.90;99.90;;;;;;5099688;28;20097;-64
2022/10/22 09:29:00;;;;;;;7.15;1.60;;;17.60;99.90;;;;;;5099661;28;20046;-64
2022/10/22 09:31:28;;;;;;;9.30;1.73;;;17.40;99.90;;;;;;5099695;28;20047;-64
2022/10/22 09:33:56;;;;;;;8.38;1.67;;;17.40;99.90;;;;;;5081938;28;20032;-63
2022/10/22 09:36:22;;;;;;;9.02;1.73;;;17.40;99.90;;;;;;5115799;28;20040;-64
2022/10/22 09:38:50;;;;;;;10.13;1.70;;;17.50;99.90;;;;;;5098508;28;20036;-64
2022/10/22 09:41:18;;;;;;;7.72;1.60;;;17.40;99.90;;;;;;5098681;28;20020;-65
2022/10/22 09:43:48;;;;;;;7.88;1.75;;;17.20;99.90;;;;;;5099269;28;20300;-65
2022/10/22 09:46:17;;;;;;;7.20;1.63;;;17.30;99.90;;;;;;5099359;28;20039;-64
2022/10/22 09:49:05;;;;;;;6.70;1.45;;;17.40;99.90;;;;;;5081745;28;20359;-64
2022/10/22 09:51:50;;;;;;;10.55;1.58;;;17.50;99.90;;;;;;5099331;28;20028;-64
2022/10/22 09:54:23;;;;;;;12.23;1.98;;;17.50;99.90;;;;;;5098590;28;20040;-62
2022/10/22 09:56:53;;;;;;;;;;;17.50;99.90;;;;;;5098574;28;20047;-65
2022/10/22 09:59:32;;;;;;;5.88;1.10;;;17.60;99.90;;;;;;5099219;28;19911;-67
2022/10/22 10:02:02;;;;;;;6.00;1.50;;;17.90;99.90;;;;;;5099162;28;20039;-67
2022/10/22 10:04:32;;;;;;;7.63;1.65;;;17.80;99.90;;;;;;5098997;28;20050;-65
2022/10/22 10:06:58;;;;;;;6.40;1.50;;;18.00;99.90;;;;;;5098925;28;20028;-67
2022/10/22 10:09:26;;;;;;;5.30;1.38;;;18.00;99.90;;;;;;5099188;28;20036;-66
2022/10/22 10:12:03;;;;;;;5.72;1.25;;;18.00;99.90;;;;;;5080824;28;20068;-67
2022/10/22 10:14:51;;;;;;;6.18;1.20;;;18.10;99.90;;;;;;5098046;28;20051;-65
2022/10/22 10:17:44;;;;;;;6.13;1.30;;;18.50;99.90;;;;;;5098733;28;20032;-66
2022/10/22 10:20:35;;;;;;;7.40;1.30;;;18.70;99.90;;;;;;5097905;28;20028;-66
2022/10/22 10:23:26;;;;;;;7.22;1.30;;;19.00;99.90;;;;;;5098037;28;20313;-66
2022/10/22 10:26:27;;;;;;;6.35;1.58;;;18.70;99.90;;;;;;5072654;28;20299;-65
2022/10/22 10:29:24;;;;;;;9.80;1.50;;;18.90;99.90;;;;;;5097827;28;20032;-66
2022/10/22 10:32:17;;;;;;;6.90;1.40;;;19.40;99.90;;;;;;5097746;28;20036;-67
2022/10/22 10:35:06;;;;;;;7.07;1.45;;;19.10;99.90;;;;;;5098370;28;20024;-66
2022/10/22 10:37:41;;;;;;;6.22;1.27;;;19.10;99.90;;;;;;5098341;28;20123;-68
2022/10/22 10:40:16;;;;;;;8.07;1.42;;;19.30;99.90;;;;;;5097554;28;20379;-66
2022/10/22 10:42:48;;;;;;;8.00;1.42;;;19.60;99.90;;;;;;5098198;28;20036;-66
2022/10/22 10:45:25;;;;;;;6.53;1.40;;;19.60;99.90;;;;;;5097497;28;20067;-65
2022/10/22 10:47:54;;;;;;;7.15;1.27;;;19.70;99.90;;;;;;5097433;28;20039;-63
2022/10/22 10:50:34;;;;;;;5.45;1.40;;;19.70;99.90;;;;;;5098043;28;20108;-65
2022/10/22 10:53:10;;;;;;;5.90;1.30;;;19.60;99.90;;;;;;5098140;28;20035;-65
2022/10/22 10:55:51;;;;;;;8.05;1.58;;;20.20;99.90;;;;;;5098065;28;20114;-63
2022/10/22 10:58:33;;;;;;;7.63;1.20;;;20.10;99.90;;;;;;5097265;28;20036;-65
2022/10/22 11:01:23;;;;;;;7.65;1.58;;;20.10;99.90;;;;;;5097939;28;20280;-65
2022/10/22 11:04:16;;;;;;;5.70;1.48;;;20.00;99.90;;;;;;5097143;28;20099;-62
2022/10/22 11:06:44;;;;;;;7.63;1.48;;;20.00;99.90;;;;;;5097893;28;20046;-65
2022/10/22 11:09:19;;;;;;;7.13;1.50;;;20.60;99.90;;;;;;5097711;28;20434;-63
2022/10/22 11:12:03;;;;;;;5.28;1.35;;;20.50;99.90;;;;;;5098129;28;20108;-66
2022/10/22 11:14:38;;;;;;;8.55;1.55;;;20.40;99.90;;;;;;5097626;28;20024;-65
2022/10/22 11:17:12;;;;;;;7.43;1.50;;;20.80;99.90;;;;;;5097185;28;20115;-65
2022/10/22 11:20:02;;;;;;;11.70;1.70;;;21.00;99.90;;;;;;5097670;28;20387;-66
2022/10/22 11:22:33;;;;;;;6.00;1.48;;;21.20;99.90;;;;;;5079432;28;20131;-65
2022/10/22 11:25:11;;;;;;;6.70;1.75;;;21.80;99.90;;;;;;5097646;28;20059;-64
2022/10/22 11:27:50;;;;;;;6.70;1.55;;;21.20;99.90;;;;;;5096682;28;20032;-60
2022/10/22 11:30:22;;;;;;;5.00;1.20;;;20.80;99.90;;;;;;5097357;28;20024;-66
2022/10/22 11:33:00;;;;;;;7.05;1.42;;;21.00;99.90;;;;;;5097216;28;20028;-64
2022/10/22 11:35:36;;;;;;;7.35;1.38;;;20.80;99.90;;;;;;5096590;28;20035;-61
2022/10/22 11:38:04;;;;;;;7.13;1.80;;;20.40;99.90;;;;;;5097796;28;20038;-64
2022/10/22 11:40:53;;;;;;;4.63;1.48;;;19.70;99.90;;;;;;5096495;28;20090;-64
2022/10/22 11:43:28;;;;;;;5.35;1.30;;;19.60;99.90;;;;;;5097749;28;20028;-65
2022/10/22 11:46:13;;;;;;;7.80;1.40;;;19.90;99.90;;;;;;5097199;28;20077;-61
2022/10/22 11:48:39;;;;;;;7.40;1.80;;;19.70;99.90;;;;;;5096337;28;20395;-64
2022/10/22 11:51:32;;;;;;;7.60;1.48;;;19.40;99.90;;;;;;5096185;28;20119;-64
2022/10/22 11:54:01;;;;;;;6.40;1.20;;;19.50;99.90;;;;;;5096182;28;20093;-63
2022/10/22 11:56:37;;;;;;;6.13;1.38;;;19.90;99.90;;;;;;5096971;28;20101;-65
2022/10/22 11:59:07;;;;;;;7.50;1.42;;;20.10;99.90;;;;;;5096395;28;20031;-65
2022/10/22 12:01:47;;;;;;;6.47;1.48;;;19.90;99.90;;;;;;5096415;28;20032;-64
2022/10/22 12:04:17;;;;;;;7.35;1.38;;;19.70;99.90;;;;;;5097503;28;20130;-67
2022/10/22 12:06:55;;;;;;;8.48;1.83;;;19.20;99.90;;;;;;5096286;28;20028;-63
2022/10/22 12:09:25;;;;;;;8.90;1.63;;;18.80;99.90;;;;;;5079414;28;20032;-64
2022/10/22 12:11:51;;;;;;;7.63;1.58;;;18.60;99.90;;;;;;5097004;28;20040;-63
2022/10/22 12:14:40;;;;;;;4.43;1.27;;;18.70;99.90;;;;;;5096085;28;20052;-63
2022/10/22 12:17:13;;;;;;;6.78;1.70;;;18.80;99.90;;;;;;5097136;28;20046;-64
2022/10/22 12:19:42;;;;;;;7.38;1.58;;;19.10;99.90;;;;;;5097191;28;20036;-65
2022/10/22 12:22:25;;;;;;;10.05;1.48;;;19.20;99.90;;;;;;5096885;28;20024;-64
2022/10/22 12:24:53;;;;;;;9.88;1.83;;;19.00;99.90;;;;;;5097180;28;20036;-63
2022/10/22 12:27:21;;;;;;;6.75;1.10;;;19.10;99.90;;;;;;5096756;28;20028;-64
2022/10/22 12:29:48;;;;;;;7.55;1.48;;;19.30;99.90;;;;;;5096814;28;20024;-61
2022/10/22 12:32:15;;;;;;;6.18;1.30;;;19.50;99.90;;;;;;5079108;28;20421;-64
2022/10/22 12:34:46;;;;;;;9.00;1.58;;;19.80;99.90;;;;;;5098109;28;20032;-65
2022/10/22 12:37:14;;;;;;;4.88;1.40;;;20.00;99.90;;;;;;5100768;28;20111;-63
2022/10/22 12:39:40;;;;;;;8.30;1.20;;;20.10;99.90;;;;;;5099981;28;20112;-64
2022/10/22 12:42:11;;;;;;;7.72;1.30;;;20.40;99.90;;;;;;5099957;28;20442;-64
2022/10/22 12:44:37;;;;;;;6.40;1.33;;;20.20;99.90;;;;;;5082974;28;20028;-64
2022/10/22 12:47:04;;;;;;;7.75;1.58;;;20.00;99.90;;;;;;5099390;28;20085;-66
2022/10/22 12:49:43;;;;;;;6.40;1.55;;;19.90;99.90;;;;;;5100480;28;20028;-63
2022/10/22 12:52:21;;;;;;;5.93;1.38;;;20.00;99.90;;;;;;5100492;28;20046;-63
2022/10/22 12:54:51;;;;;;;6.20;1.75;;;19.90;99.90;;;;;;5099675;28;20024;-63
2022/10/22 12:57:19;;;;;;;4.68;1.75;;;19.80;99.90;;;;;;5082448;28;20048;-64
2022/10/22 12:59:50;;;;;;;5.13;1.30;;;19.80;99.90;;;;;;5100580;28;20272;-63
2022/10/22 13:02:24;;;;;;;4.90;1.60;;;19.80;99.90;;;;;;5100209;28;20034;-64